sensor_id;sensor_type;location;lat;lon;timestamp;pressure;altitude;pressure_sealevel;temperature;humidity
13593;BME280;6867;50.998;4.250;2022-09-09T00:01:05;100534.72;;;16.09;87.43
13593;BME280;6867;50.998;4.250;2022-09-09T00:03:41;100523.44;;;16.17;87.04
13593;BME280;6867;50.998;4.250;2022-09-09T00:06:17;100521.03;;;16.21;86.93
13593;BME280;6867;50.998;4.250;2022-09-09T00:08:53;100519.47;;;16.25;87.04
13593;BME280;6867;50.998;4.250;2022-09-09T00:11:30;100517.91;;;16.29;86.61
13593;BME280;6867;50.998;4.250;2022-09-09T00:14:03;100516.84;;;16.30;86.33
13593;BME280;6867;50.998;4.250;2022-09-09T00:16:36;100520.09;;;16.32;86.89
13593;BME280;6867;50.998;4.250;2022-09-09T00:19:10;100511.47;;;16.35;86.85
13593;BME280;6867;50.998;4.250;2022-09-09T00:21:47;100521.19;;;16.31;87.13
13593;BME280;6867;50.998;4.250;2022-09-09T00:24:23;100512.31;;;16.36;86.71
13593;BME280;6867;50.998;4.250;2022-09-09T00:26:56;100514.75;;;16.37;86.93
13593;BME280;6867;50.998;4.250;2022-09-09T00:29:31;100522.28;;;16.30;87.25
13593;BME280;6867;50.998;4.250;2022-09-09T00:32:09;100518.59;;;16.41;87.13
13593;BME280;6867;50.998;4.250;2022-09-09T00:34:39;100512.34;;;16.41;87.49
13593;BME280;6867;50.998;4.250;2022-09-09T00:37:09;100522.31;;;16.35;87.61
13593;BME280;6867;50.998;4.250;2022-09-09T00:39:38;100515.88;;;16.41;88.07
13593;BME280;6867;50.998;4.250;2022-09-09T00:42:14;100511.41;;;16.52;87.71
13593;BME280;6867;50.998;4.250;2022-09-09T00:44:51;100510.84;;;16.50;87.48
13593;BME280;6867;50.998;4.250;2022-09-09T00:47:42;100511.91;;;16.49;87.69
13593;BME280;6867;50.998;4.250;2022-09-09T00:50:17;100498.34;;;16.49;87.50
13593;BME280;6867;50.998;4.250;2022-09-09T00:52:59;100498.41;;;16.54;87.80
13593;BME280;6867;50.998;4.250;2022-09-09T00:55:33;100491.72;;;16.62;87.82
13593;BME280;6867;50.998;4.250;2022-09-09T00:58:06;100493.44;;;16.68;88.08
13593;BME280;6867;50.998;4.250;2022-09-09T01:00:39;100497.03;;;16.74;87.70
13593;BME280;6867;50.998;4.250;2022-09-09T01:03:21;100486.31;;;16.62;87.79
13593;BME280;6867;50.998;4.250;2022-09-09T01:05:57;100490.84;;;16.56;87.74
13593;BME280;6867;50.998;4.250;2022-09-09T01:08:41;100483.03;;;16.60;87.54
13593;BME280;6867;50.998;4.250;2022-09-09T01:11:16;100483.91;;;16.65;87.66
13593;BME280;6867;50.998;4.250;2022-09-09T01:13:52;100488.50;;;16.65;88.19
13593;BME280;6867;50.998;4.250;2022-09-09T01:16:20;100484.16;;;16.64;87.93
13593;BME280;6867;50.998;4.250;2022-09-09T01:18:49;100476.97;;;16.53;88.28
13593;BME280;6867;50.998;4.250;2022-09-09T01:21:25;100469.03;;;16.46;87.93
13593;BME280;6867;50.998;4.250;2022-09-09T01:24:15;100469.31;;;16.44;87.82
13593;BME280;6867;50.998;4.250;2022-09-09T01:26:47;100458.94;;;16.41;87.62
13593;BME280;6867;50.998;4.250;2022-09-09T01:29:17;100449.19;;;16.40;87.19
13593;BME280;6867;50.998;4.250;2022-09-09T01:31:53;100448.50;;;16.28;87.67
13593;BME280;6867;50.998;4.250;2022-09-09T01:34:22;100448.19;;;16.25;88.06
13593;BME280;6867;50.998;4.250;2022-09-09T01:36:53;100441.94;;;16.24;87.98
13593;BME280;6867;50.998;4.250;2022-09-09T01:39:21;100454.63;;;16.18;88.65
13593;BME280;6867;50.998;4.250;2022-09-09T01:41:49;100451.28;;;16.33;88.50
13593;BME280;6867;50.998;4.250;2022-09-09T01:44:16;100460.38;;;16.22;89.34
13593;BME280;6867;50.998;4.250;2022-09-09T01:46:43;100459.16;;;16.35;89.32
13593;BME280;6867;50.998;4.250;2022-09-09T01:49:10;100450.13;;;16.29;89.46
13593;BME280;6867;50.998;4.250;2022-09-09T01:51:38;100455.38;;;16.36;89.61
13593;BME280;6867;50.998;4.250;2022-09-09T01:54:07;100441.06;;;16.40;89.24
13593;BME280;6867;50.998;4.250;2022-09-09T01:56:42;100447.09;;;16.48;89.40
13593;BME280;6867;50.998;4.250;2022-09-09T01:59:21;100445.75;;;16.50;89.14
13593;BME280;6867;50.998;4.250;2022-09-09T02:01:59;100442.56;;;16.53;88.67
13593;BME280;6867;50.998;4.250;2022-09-09T02:04:39;100442.75;;;16.47;89.00
13593;BME280;6867;50.998;4.250;2022-09-09T02:07:15;100445.00;;;16.55;89.05
13593;BME280;6867;50.998;4.250;2022-09-09T02:09:52;100438.44;;;16.51;88.95
13593;BME280;6867;50.998;4.250;2022-09-09T02:12:25;100432.47;;;16.49;89.01
13593;BME280;6867;50.998;4.250;2022-09-09T02:14:57;100430.06;;;16.52;88.33
13593;BME280;6867;50.998;4.250;2022-09-09T02:17:30;100434.41;;;16.53;88.39
13593;BME280;6867;50.998;4.250;2022-09-09T02:20:03;100437.63;;;16.50;88.41
13593;BME280;6867;50.998;4.250;2022-09-09T02:22:32;100438.72;;;16.49;89.10
13593;BME280;6867;50.998;4.250;2022-09-09T02:25:01;100449.66;;;16.59;89.16
13593;BME280;6867;50.998;4.250;2022-09-09T02:27:30;100442.56;;;16.53;88.53
13593;BME280;6867;50.998;4.250;2022-09-09T02:30:00;100436.38;;;16.58;88.38
13593;BME280;6867;50.998;4.250;2022-09-09T02:32:28;100442.06;;;16.56;88.71
13593;BME280;6867;50.998;4.250;2022-09-09T02:34:59;100444.75;;;16.56;88.84
13593;BME280;6867;50.998;4.250;2022-09-09T02:37:33;100442.28;;;16.55;89.22
13593;BME280;6867;50.998;4.250;2022-09-09T02:40:02;100447.72;;;16.55;89.33
13593;BME280;6867;50.998;4.250;2022-09-09T02:42:29;100447.16;;;16.53;89.57
13593;BME280;6867;50.998;4.250;2022-09-09T02:44:55;100447.34;;;16.46;89.40
13593;BME280;6867;50.998;4.250;2022-09-09T02:47:30;100446.72;;;16.61;89.31
13593;BME280;6867;50.998;4.250;2022-09-09T02:50:11;100444.22;;;16.59;89.55
13593;BME280;6867;50.998;4.250;2022-09-09T02:52:47;100442.41;;;16.65;89.31
13593;BME280;6867;50.998;4.250;2022-09-09T02:55:20;100444.31;;;16.64;89.79
13593;BME280;6867;50.998;4.250;2022-09-09T02:57:51;100444.09;;;16.71;89.41
13593;BME280;6867;50.998;4.250;2022-09-09T03:00:23;100450.31;;;16.72;89.58
13593;BME280;6867;50.998;4.250;2022-09-09T03:02:52;100452.06;;;16.78;89.47
13593;BME280;6867;50.998;4.250;2022-09-09T03:05:19;100452.75;;;16.68;89.91
13593;BME280;6867;50.998;4.250;2022-09-09T03:07:48;100448.97;;;16.69;89.82
13593;BME280;6867;50.998;4.250;2022-09-09T03:10:16;100439.84;;;16.80;89.17
13593;BME280;6867;50.998;4.250;2022-09-09T03:12:43;100427.75;;;16.66;89.20
13593;BME280;6867;50.998;4.250;2022-09-09T03:15:10;100432.75;;;16.74;89.28
13593;BME280;6867;50.998;4.250;2022-09-09T03:17:37;100425.63;;;16.68;89.43
13593;BME280;6867;50.998;4.250;2022-09-09T03:20:05;100427.91;;;16.76;88.86
13593;BME280;6867;50.998;4.250;2022-09-09T03:22:32;100426.75;;;16.72;88.84
13593;BME280;6867;50.998;4.250;2022-09-09T03:24:59;100431.88;;;16.68;89.12
13593;BME280;6867;50.998;4.250;2022-09-09T03:27:25;100430.97;;;16.63;89.13
13593;BME280;6867;50.998;4.250;2022-09-09T03:29:52;100426.09;;;16.60;88.93
13593;BME280;6867;50.998;4.250;2022-09-09T03:32:19;100424.56;;;16.69;89.09
13593;BME280;6867;50.998;4.250;2022-09-09T03:34:47;100423.00;;;16.73;89.28
13593;BME280;6867;50.998;4.250;2022-09-09T03:37:16;100420.72;;;16.65;89.19
13593;BME280;6867;50.998;4.250;2022-09-09T03:39:44;100421.63;;;16.49;90.12
13593;BME280;6867;50.998;4.250;2022-09-09T03:42:12;100427.09;;;16.54;90.21
13593;BME280;6867;50.998;4.250;2022-09-09T03:44:44;100418.97;;;16.54;90.14
13593;BME280;6867;50.998;4.250;2022-09-09T03:47:14;100420.03;;;16.53;89.96
13593;BME280;6867;50.998;4.250;2022-09-09T03:49:40;100427.47;;;16.35;91.14
13593;BME280;6867;50.998;4.250;2022-09-09T03:52:08;100426.78;;;16.50;91.04
13593;BME280;6867;50.998;4.250;2022-09-09T03:54:36;100419.81;;;16.59;90.37
13593;BME280;6867;50.998;4.250;2022-09-09T03:57:03;100422.00;;;16.57;90.81
13593;BME280;6867;50.998;4.250;2022-09-09T03:59:31;100431.88;;;16.68;90.70
13593;BME280;6867;50.998;4.250;2022-09-09T04:01:57;100415.72;;;16.79;90.60
13593;BME280;6867;50.998;4.250;2022-09-09T04:04:24;100414.44;;;16.86;90.73
13593;BME280;6867;50.998;4.250;2022-09-09T04:06:51;100410.13;;;16.90;91.05
13593;BME280;6867;50.998;4.250;2022-09-09T04:09:18;100400.16;;;17.01;90.08
13593;BME280;6867;50.998;4.250;2022-09-09T04:11:46;100388.16;;;16.92;89.98
13593;BME280;6867;50.998;4.250;2022-09-09T04:14:13;100388.16;;;16.92;89.77
13593;BME280;6867;50.998;4.250;2022-09-09T04:16:39;100387.84;;;16.88;89.25
13593;BME280;6867;50.998;4.250;2022-09-09T04:19:10;100377.22;;;16.82;89.55
13593;BME280;6867;50.998;4.250;2022-09-09T04:21:38;100376.06;;;16.73;89.88
13593;BME280;6867;50.998;4.250;2022-09-09T04:24:06;100373.53;;;16.66;89.79
13593;BME280;6867;50.998;4.250;2022-09-09T04:26:34;100373.13;;;16.52;90.13
13593;BME280;6867;50.998;4.250;2022-09-09T04:29:03;100384.97;;;16.68;89.31
13593;BME280;6867;50.998;4.250;2022-09-09T04:31:30;100373.81;;;16.64;89.84
13593;BME280;6867;50.998;4.250;2022-09-09T04:33:57;100372.13;;;16.63;90.01
13593;BME280;6867;50.998;4.250;2022-09-09T04:36:27;100379.97;;;16.33;90.65
13593;BME280;6867;50.998;4.250;2022-09-09T04:38:54;100381.59;;;16.56;91.15
13593;BME280;6867;50.998;4.250;2022-09-09T04:41:21;100379.47;;;16.63;90.72
13593;BME280;6867;50.998;4.250;2022-09-09T04:43:47;100386.47;;;16.59;90.85
13593;BME280;6867;50.998;4.250;2022-09-09T04:46:15;100386.53;;;16.64;90.92
13593;BME280;6867;50.998;4.250;2022-09-09T04:48:43;100382.84;;;16.75;90.60
13593;BME280;6867;50.998;4.250;2022-09-09T04:51:11;100386.91;;;16.73;90.56
13593;BME280;6867;50.998;4.250;2022-09-09T04:53:38;100392.13;;;16.79;90.76
13593;BME280;6867;50.998;4.250;2022-09-09T04:56:07;100392.94;;;16.80;90.83
13593;BME280;6867;50.998;4.250;2022-09-09T04:58:35;100388.09;;;16.82;90.39
13593;BME280;6867;50.998;4.250;2022-09-09T05:01:04;100390.19;;;16.75;90.64
13593;BME280;6867;50.998;4.250;2022-09-09T05:03:32;100400.69;;;16.71;90.86
13593;BME280;6867;50.998;4.250;2022-09-09T05:06:03;100398.34;;;16.80;91.05
13593;BME280;6867;50.998;4.250;2022-09-09T05:08:30;100393.53;;;16.87;90.69
13593;BME280;6867;50.998;4.250;2022-09-09T05:10:57;100403.09;;;16.67;90.66
13593;BME280;6867;50.998;4.250;2022-09-09T05:13:24;100401.34;;;16.78;91.14
13593;BME280;6867;50.998;4.250;2022-09-09T05:15:52;100405.72;;;16.84;90.93
13593;BME280;6867;50.998;4.250;2022-09-09T05:18:19;100399.34;;;17.01;90.59
13593;BME280;6867;50.998;4.250;2022-09-09T05:20:49;100393.09;;;17.00;90.13
13593;BME280;6867;50.998;4.250;2022-09-09T05:23:16;100389.41;;;17.11;89.75
13593;BME280;6867;50.998;4.250;2022-09-09T05:25:54;100390.19;;;17.07;89.76
13593;BME280;6867;50.998;4.250;2022-09-09T05:28:22;100398.97;;;17.19;89.74
13593;BME280;6867;50.998;4.250;2022-09-09T05:30:55;100387.69;;;17.42;89.75
13593;BME280;6867;50.998;4.250;2022-09-09T05:33:23;100386.53;;;17.28;89.38
13593;BME280;6867;50.998;4.250;2022-09-09T05:35:57;100376.41;;;17.56;88.74
13593;BME280;6867;50.998;4.250;2022-09-09T05:38:23;100370.06;;;17.40;88.10
13593;BME280;6867;50.998;4.250;2022-09-09T05:40:50;100364.19;;;17.63;87.92
13593;BME280;6867;50.998;4.250;2022-09-09T05:43:17;100365.00;;;17.64;87.84
13593;BME280;6867;50.998;4.250;2022-09-09T05:45:45;100366.03;;;17.48;87.68
13593;BME280;6867;50.998;4.250;2022-09-09T05:48:13;100368.19;;;17.51;87.85
13593;BME280;6867;50.998;4.250;2022-09-09T05:50:40;100365.53;;;17.56;87.17
13593;BME280;6867;50.998;4.250;2022-09-09T05:53:09;100360.31;;;17.49;87.33
13593;BME280;6867;50.998;4.250;2022-09-09T05:55:36;100369.59;;;17.58;87.19
13593;BME280;6867;50.998;4.250;2022-09-09T05:58:03;100370.47;;;17.69;87.17
13593;BME280;6867;50.998;4.250;2022-09-09T06:00:29;100359.97;;;17.83;86.56
13593;BME280;6867;50.998;4.250;2022-09-09T06:02:57;100361.78;;;17.72;86.29
13593;BME280;6867;50.998;4.250;2022-09-09T06:05:24;100360.78;;;17.78;86.14
13593;BME280;6867;50.998;4.250;2022-09-09T06:07:52;100359.69;;;17.79;85.63
13593;BME280;6867;50.998;4.250;2022-09-09T06:10:21;100359.75;;;18.00;85.44
13593;BME280;6867;50.998;4.250;2022-09-09T06:12:47;100353.53;;;18.04;84.64
13593;BME280;6867;50.998;4.250;2022-09-09T06:15:14;100359.00;;;18.20;84.20
13593;BME280;6867;50.998;4.250;2022-09-09T06:17:41;100347.34;;;18.29;83.48
13593;BME280;6867;50.998;4.250;2022-09-09T06:20:09;100338.59;;;18.17;82.81
13593;BME280;6867;50.998;4.250;2022-09-09T06:22:35;100350.28;;;18.07;82.83
13593;BME280;6867;50.998;4.250;2022-09-09T06:25:03;100354.06;;;18.01;83.53
13593;BME280;6867;50.998;4.250;2022-09-09T06:27:31;100350.63;;;18.36;82.83
13593;BME280;6867;50.998;4.250;2022-09-09T06:29:57;100342.47;;;18.31;81.67
13593;BME280;6867;50.998;4.250;2022-09-09T06:32:24;100334.06;;;18.48;80.99
13593;BME280;6867;50.998;4.250;2022-09-09T06:34:52;100339.47;;;18.58;80.36
13593;BME280;6867;50.998;4.250;2022-09-09T06:37:19;100341.97;;;18.70;80.44
13593;BME280;6867;50.998;4.250;2022-09-09T06:39:46;100330.56;;;18.94;79.53
13593;BME280;6867;50.998;4.250;2022-09-09T06:42:13;100334.88;;;19.00;78.69
13593;BME280;6867;50.998;4.250;2022-09-09T06:44:42;100318.75;;;19.34;77.73
13593;BME280;6867;50.998;4.250;2022-09-09T06:47:09;100318.91;;;19.68;76.75
13593;BME280;6867;50.998;4.250;2022-09-09T06:49:36;100293.34;;;19.69;75.36
13593;BME280;6867;50.998;4.250;2022-09-09T06:52:03;100308.88;;;19.63;75.39
13593;BME280;6867;50.998;4.250;2022-09-09T06:54:29;100288.44;;;19.66;74.37
13593;BME280;6867;50.998;4.250;2022-09-09T06:56:56;100300.88;;;19.82;74.51
13593;BME280;6867;50.998;4.250;2022-09-09T06:59:23;100287.38;;;19.47;74.24
13593;BME280;6867;50.998;4.250;2022-09-09T07:01:52;100305.88;;;19.55;74.95
13593;BME280;6867;50.998;4.250;2022-09-09T07:04:19;100297.72;;;19.65;74.49
13593;BME280;6867;50.998;4.250;2022-09-09T07:06:46;100306.50;;;20.01;74.15
13593;BME280;6867;50.998;4.250;2022-09-09T07:09:15;100299.19;;;19.92;73.51
13593;BME280;6867;50.998;4.250;2022-09-09T07:11:43;100296.78;;;19.85;73.46
13593;BME280;6867;50.998;4.250;2022-09-09T07:14:10;100286.63;;;19.96;72.58
13593;BME280;6867;50.998;4.250;2022-09-09T07:16:39;100284.56;;;19.72;72.62
13593;BME280;6867;50.998;4.250;2022-09-09T07:19:09;100299.00;;;19.73;73.15
13593;BME280;6867;50.998;4.250;2022-09-09T07:21:35;100295.41;;;20.32;72.17
13593;BME280;6867;50.998;4.250;2022-09-09T07:24:02;100278.78;;;20.28;71.03
13593;BME280;6867;50.998;4.250;2022-09-09T07:26:33;100277.81;;;20.82;70.24
13593;BME280;6867;50.998;4.250;2022-09-09T07:29:00;100262.19;;;20.59;69.31
13593;BME280;6867;50.998;4.250;2022-09-09T07:31:28;100260.81;;;20.91;68.83
13593;BME280;6867;50.998;4.250;2022-09-09T07:33:56;100263.81;;;20.60;68.95
13593;BME280;6867;50.998;4.250;2022-09-09T07:36:26;100279.13;;;20.61;70.20
13593;BME280;6867;50.998;4.250;2022-09-09T07:38:54;100279.72;;;20.48;70.24
13593;BME280;6867;50.998;4.250;2022-09-09T07:41:23;100290.25;;;20.25;71.00
13593;BME280;6867;50.998;4.250;2022-09-09T07:43:51;100299.16;;;19.97;71.79
13593;BME280;6867;50.998;4.250;2022-09-09T07:46:20;100295.16;;;20.28;71.21
13593;BME280;6867;50.998;4.250;2022-09-09T07:48:49;100286.56;;;20.11;71.09
13593;BME280;6867;50.998;4.250;2022-09-09T07:51:17;100290.56;;;20.19;71.17
13593;BME280;6867;50.998;4.250;2022-09-09T07:53:46;100282.63;;;20.22;71.10
13593;BME280;6867;50.998;4.250;2022-09-09T07:56:14;100284.50;;;20.27;70.88
13593;BME280;6867;50.998;4.250;2022-09-09T07:58:42;100269.00;;;20.61;70.10
13593;BME280;6867;50.998;4.250;2022-09-09T08:01:12;100263.56;;;20.56;69.49
13593;BME280;6867;50.998;4.250;2022-09-09T08:03:39;100266.22;;;20.67;69.07
13593;BME280;6867;50.998;4.250;2022-09-09T08:06:07;100257.31;;;20.85;68.52
13593;BME280;6867;50.998;4.250;2022-09-09T08:08:35;100242.75;;;21.43;67.14
13593;BME280;6867;50.998;4.250;2022-09-09T08:11:06;100252.84;;;21.18;67.07
13593;BME280;6867;50.998;4.250;2022-09-09T08:13:34;100274.59;;;20.75;68.37
13593;BME280;6867;50.998;4.250;2022-09-09T08:16:06;100269.38;;;20.50;68.38
13593;BME280;6867;50.998;4.250;2022-09-09T08:18:33;100274.66;;;20.70;68.09
13593;BME280;6867;50.998;4.250;2022-09-09T08:21:08;100260.69;;;21.01;67.41
13593;BME280;6867;50.998;4.250;2022-09-09T08:23:37;100260.00;;;21.14;67.11
13593;BME280;6867;50.998;4.250;2022-09-09T08:26:07;100266.41;;;20.75;67.35
13593;BME280;6867;50.998;4.250;2022-09-09T08:28:36;100259.34;;;21.70;66.34
13593;BME280;6867;50.998;4.250;2022-09-09T08:31:11;100234.66;;;21.56;65.25
13593;BME280;6867;50.998;4.250;2022-09-09T08:33:39;100250.84;;;21.53;65.43
13593;BME280;6867;50.998;4.250;2022-09-09T08:36:08;100280.28;;;21.08;66.88
13593;BME280;6867;50.998;4.250;2022-09-09T08:38:35;100297.16;;;20.57;68.18
13593;BME280;6867;50.998;4.250;2022-09-09T08:44:06;100332.53;;;20.23;69.93
13593;BME280;6867;50.998;4.250;2022-09-09T08:46:40;100332.94;;;20.45;69.93
13593;BME280;6867;50.998;4.250;2022-09-09T08:49:22;100329.69;;;20.43;69.73
13593;BME280;6867;50.998;4.250;2022-09-09T08:51:54;100344.28;;;20.18;70.60
13593;BME280;6867;50.998;4.250;2022-09-09T08:54:23;100334.19;;;20.19;70.45
13593;BME280;6867;50.998;4.250;2022-09-09T08:56:50;100342.50;;;20.03;70.93
13593;BME280;6867;50.998;4.250;2022-09-09T08:59:18;100340.31;;;20.00;71.42
13593;BME280;6867;50.998;4.250;2022-09-09T09:01:58;100365.50;;;19.72;72.40
13593;BME280;6867;50.998;4.250;2022-09-09T09:04:40;100360.81;;;19.87;71.86
13593;BME280;6867;50.998;4.250;2022-09-09T09:07:19;100347.97;;;19.98;71.30
13593;BME280;6867;50.998;4.250;2022-09-09T09:09:57;100358.38;;;19.86;71.74
13593;BME280;6867;50.998;4.250;2022-09-09T09:12:32;100359.25;;;19.71;72.48
13593;BME280;6867;50.998;4.250;2022-09-09T09:15:11;100361.44;;;19.69;72.56
13593;BME280;6867;50.998;4.250;2022-09-09T09:17:41;100354.81;;;19.85;71.93
13593;BME280;6867;50.998;4.250;2022-09-09T09:20:12;100337.50;;;20.15;70.75
13593;BME280;6867;50.998;4.250;2022-09-09T09:22:46;100331.69;;;19.83;71.00
13593;BME280;6867;50.998;4.250;2022-09-09T09:25:17;100341.91;;;20.06;70.88
13593;BME280;6867;50.998;4.250;2022-09-09T09:27:49;100336.22;;;20.03;70.62
13593;BME280;6867;50.998;4.250;2022-09-09T09:30:23;100345.44;;;20.12;70.76
13593;BME280;6867;50.998;4.250;2022-09-09T09:32:54;100339.50;;;20.49;69.96
13593;BME280;6867;50.998;4.250;2022-09-09T09:35:22;100343.44;;;20.28;69.93
13593;BME280;6867;50.998;4.250;2022-09-09T09:37:49;100348.81;;;20.38;69.99
13593;BME280;6867;50.998;4.250;2022-09-09T09:40:18;100328.97;;;21.01;68.27
13593;BME280;6867;50.998;4.250;2022-09-09T09:42:49;100326.16;;;21.06;67.74
13593;BME280;6867;50.998;4.250;2022-09-09T09:45:29;100328.53;;;20.88;67.90
13593;BME280;6867;50.998;4.250;2022-09-09T09:47:59;100331.69;;;20.72;67.96
13593;BME280;6867;50.998;4.250;2022-09-09T09:50:27;100338.75;;;21.07;67.59
13593;BME280;6867;50.998;4.250;2022-09-09T09:52:55;100328.91;;;21.06;67.10
13593;BME280;6867;50.998;4.250;2022-09-09T09:55:23;100319.28;;;20.84;67.13
13593;BME280;6867;50.998;4.250;2022-09-09T09:57:51;100342.38;;;20.97;67.46
13593;BME280;6867;50.998;4.250;2022-09-09T10:00:20;100349.19;;;21.00;67.62
13593;BME280;6867;50.998;4.250;2022-09-09T10:02:49;100368.66;;;20.88;68.43
13593;BME280;6867;50.998;4.250;2022-09-09T10:05:19;100349.06;;;21.10;67.14
13593;BME280;6867;50.998;4.250;2022-09-09T10:07:47;100332.59;;;21.20;66.59
13593;BME280;6867;50.998;4.250;2022-09-09T10:10:38;100339.88;;;21.30;66.38
13593;BME280;6867;50.998;4.250;2022-09-09T10:13:13;100324.56;;;21.58;65.84
13593;BME280;6867;50.998;4.250;2022-09-09T10:15:50;100347.25;;;21.29;66.35
13593;BME280;6867;50.998;4.250;2022-09-09T10:18:39;100320.13;;;22.43;64.59
13593;BME280;6867;50.998;4.250;2022-09-09T10:21:21;100274.19;;;22.58;62.07
13593;BME280;6867;50.998;4.250;2022-09-09T10:24:09;100289.22;;;22.75;62.08
13593;BME280;6867;50.998;4.250;2022-09-09T10:26:43;100282.16;;;22.87;61.17
13593;BME280;6867;50.998;4.250;2022-09-09T10:29:32;100264.38;;;22.71;60.52
13593;BME280;6867;50.998;4.250;2022-09-09T10:32:18;100289.00;;;23.04;60.53
13593;BME280;6867;50.998;4.250;2022-09-09T10:34:59;100285.59;;;22.28;61.43
13593;BME280;6867;50.998;4.250;2022-09-09T10:40:16;100336.13;;;21.93;63.35
13593;BME280;6867;50.998;4.250;2022-09-09T10:42:47;100322.31;;;21.84;62.91
13593;BME280;6867;50.998;4.250;2022-09-09T10:45:17;100321.22;;;21.61;63.40
13593;BME280;6867;50.998;4.250;2022-09-09T10:48:10;100364.56;;;21.20;65.30
13593;BME280;6867;50.998;4.250;2022-09-09T10:50:53;100362.91;;;21.48;65.22
13593;BME280;6867;50.998;4.250;2022-09-09T10:53:33;100358.97;;;21.59;64.74
13593;BME280;6867;50.998;4.250;2022-09-09T10:56:06;100363.53;;;20.81;66.16
13593;BME280;6867;50.998;4.250;2022-09-09T10:58:37;100374.28;;;21.02;65.89
13593;BME280;6867;50.998;4.250;2022-09-09T11:01:14;100373.72;;;21.34;65.87
13593;BME280;6867;50.998;4.250;2022-09-09T11:03:43;100377.28;;;21.34;65.90
13593;BME280;6867;50.998;4.250;2022-09-09T11:06:18;100369.09;;;21.58;65.75
13593;BME280;6867;50.998;4.250;2022-09-09T11:08:46;100338.88;;;21.93;64.05
13593;BME280;6867;50.998;4.250;2022-09-09T11:11:18;100325.72;;;22.70;62.73
13593;BME280;6867;50.998;4.250;2022-09-09T11:13:48;100314.16;;;22.41;62.14
13593;BME280;6867;50.998;4.250;2022-09-09T11:16:23;100323.47;;;22.40;62.17
13593;BME280;6867;50.998;4.250;2022-09-09T11:18:56;100315.72;;;23.12;61.05
13593;BME280;6867;50.998;4.250;2022-09-09T11:21:28;100295.00;;;23.20;59.98
13593;BME280;6867;50.998;4.250;2022-09-09T11:23:59;100304.66;;;23.31;59.77
13593;BME280;6867;50.998;4.250;2022-09-09T11:26:31;100276.94;;;23.05;58.92
13593;BME280;6867;50.998;4.250;2022-09-09T11:32:00;100240.84;;;24.17;55.57
13593;BME280;6867;50.998;4.250;2022-09-09T11:34:40;100277.56;;;24.07;56.65
13593;BME280;6867;50.998;4.250;2022-09-09T11:37:27;100275.47;;;23.90;57.33
13593;BME280;6867;50.998;4.250;2022-09-09T11:40:19;100261.81;;;23.35;57.28
13593;BME280;6867;50.998;4.250;2022-09-09T11:42:46;100302.22;;;22.83;58.54
13593;BME280;6867;50.998;4.250;2022-09-09T11:45:24;100287.19;;;23.27;57.97
13593;BME280;6867;50.998;4.250;2022-09-09T11:47:55;100316.63;;;23.63;58.37
13593;BME280;6867;50.998;4.250;2022-09-09T11:50:31;100309.09;;;23.96;57.42
13593;BME280;6867;50.998;4.250;2022-09-09T11:53:17;100293.22;;;23.70;57.74
13593;BME280;6867;50.998;4.250;2022-09-09T11:55:48;100309.63;;;24.20;57.37
13593;BME280;6867;50.998;4.250;2022-09-09T11:58:27;100282.38;;;24.24;57.00
13593;BME280;6867;50.998;4.250;2022-09-09T12:00:58;100303.34;;;23.70;57.81
13593;BME280;6867;50.998;4.250;2022-09-09T12:03:38;100308.41;;;23.21;57.85
13593;BME280;6867;50.998;4.250;2022-09-09T12:06:14;100323.75;;;23.50;58.30
13593;BME280;6867;50.998;4.250;2022-09-09T12:08:45;100331.25;;;23.85;58.03
13593;BME280;6867;50.998;4.250;2022-09-09T12:11:23;100347.22;;;23.83;58.75
13593;BME280;6867;50.998;4.250;2022-09-09T12:13:53;100295.97;;;24.43;57.02
13593;BME280;6867;50.998;4.250;2022-09-09T12:16:31;100316.03;;;24.74;56.85
13593;BME280;6867;50.998;4.250;2022-09-09T12:19:05;100277.25;;;24.67;55.70
13593;BME280;6867;50.998;4.250;2022-09-09T12:21:35;100270.81;;;24.49;55.02
13593;BME280;6867;50.998;4.250;2022-09-09T12:24:09;100258.72;;;24.36;55.23
13593;BME280;6867;50.998;4.250;2022-09-09T12:26:39;100301.63;;;24.10;56.81
13593;BME280;6867;50.998;4.250;2022-09-09T12:29:16;100334.91;;;23.81;57.69
13593;BME280;6867;50.998;4.250;2022-09-09T12:31:49;100320.00;;;24.23;56.92
13593;BME280;6867;50.998;4.250;2022-09-09T12:34:23;100287.53;;;24.39;55.58
13593;BME280;6867;50.998;4.250;2022-09-09T12:36:57;100285.47;;;24.67;55.22
13593;BME280;6867;50.998;4.250;2022-09-09T12:39:31;100288.56;;;24.29;55.75
13593;BME280;6867;50.998;4.250;2022-09-09T12:42:01;100280.53;;;23.97;56.32
13593;BME280;6867;50.998;4.250;2022-09-09T12:44:30;100285.81;;;24.29;56.25
13593;BME280;6867;50.998;4.250;2022-09-09T12:47:00;100308.09;;;23.92;56.72
13593;BME280;6867;50.998;4.250;2022-09-09T12:49:30;100325.44;;;24.01;57.54
13593;BME280;6867;50.998;4.250;2022-09-09T12:52:01;100317.31;;;24.32;56.75
13593;BME280;6867;50.998;4.250;2022-09-09T12:54:33;100344.31;;;24.16;57.92
13593;BME280;6867;50.998;4.250;2022-09-09T12:57:01;100309.06;;;24.32;57.06
13593;BME280;6867;50.998;4.250;2022-09-09T12:59:36;100324.06;;;24.26;57.89
13593;BME280;6867;50.998;4.250;2022-09-09T13:02:16;100324.44;;;23.97;57.69
13593;BME280;6867;50.998;4.250;2022-09-09T13:04:44;100306.69;;;23.80;57.69
13593;BME280;6867;50.998;4.250;2022-09-09T13:07:12;100319.56;;;23.39;58.22
13593;BME280;6867;50.998;4.250;2022-09-09T13:09:43;100334.56;;;23.14;58.92
13593;BME280;6867;50.998;4.250;2022-09-09T13:12:14;100332.53;;;23.05;59.12
13593;BME280;6867;50.998;4.250;2022-09-09T13:14:43;100362.78;;;23.28;59.72
13593;BME280;6867;50.998;4.250;2022-09-09T13:17:18;100351.50;;;23.16;59.84
13593;BME280;6867;50.998;4.250;2022-09-09T13:19:46;100333.00;;;23.68;58.35
13593;BME280;6867;50.998;4.250;2022-09-09T13:22:14;100281.59;;;23.73;56.98
13593;BME280;6867;50.998;4.250;2022-09-09T13:24:42;100312.16;;;24.30;56.82
13593;BME280;6867;50.998;4.250;2022-09-09T13:27:24;100268.81;;;24.41;55.62
13593;BME280;6867;50.998;4.250;2022-09-09T13:29:54;100292.31;;;24.33;55.94